sensor_id;sensor_type;location;lat;lon;timestamp;P1;durP1;ratioP1;P2;durP2;ratioP2
9972;SDS011;5027;53.560;10.062;2023-03-04T00:02:13;5.27;;;2.40;;
9972;SDS011;5027;53.560;10.062;2023-03-04T00:04:40;4.17;;;2.40;;
9972;SDS011;5027;53.560;10.062;2023-03-04T00:07:07;5.07;;;2.47;;
9972;SDS011;5027;53.560;10.062;2023-03-04T00:09:34;4.57;;;2.50;;
9972;SDS011;5027;53.560;10.062;2023-03-04T00:12:00;5.63;;;2.50;;
9972;SDS011;5027;53.560;10.062;2023-03-04T00:14:27;5.40;;;2.70;;
9972;SDS011;5027;53.560;10.062;2023-03-04T00:16:55;11.37;;;3.37;;
9972;SDS011;5027;53.560;10.062;2023-03-04T00:19:22;9.43;;;3.50;;
9972;SDS011;5027;53.560;10.062;2023-03-04T00:21:49;6.23;;;2.47;;
9972;SDS011;5027;53.560;10.062;2023-03-04T00:24:15;6.70;;;2.70;;
9972;SDS011;5027;53.560;10.062;2023-03-04T00:26:42;11.50;;;3.23;;
9972;SDS011;5027;53.560;10.062;2023-03-04T00:29:09;11.87;;;3.30;;
9972;SDS011;5027;53.560;10.062;2023-03-04T00:31:35;7.97;;;2.67;;
9972;SDS011;5027;53.560;10.062;2023-03-04T00:34:02;11.30;;;2.97;;
9972;SDS011;5027;53.560;10.062;2023-03-04T00:36:29;3.47;;;2.30;;
9972;SDS011;5027;53.560;10.062;2023-03-04T00:38:56;4.03;;;2.20;;
9972;SDS011;5027;53.560;10.062;2023-03-04T00:41:22;9.93;;;3.47;;
9972;SDS011;5027;53.560;10.062;2023-03-04T00:43:49;8.00;;;2.90;;
9972;SDS011;5027;53.560;10.062;2023-03-04T00:46:16;6.57;;;2.77;;
9972;SDS011;5027;53.560;10.062;2023-03-04T00:48:43;6.43;;;2.20;;
9972;SDS011;5027;53.560;10.062;2023-03-04T00:51:09;4.07;;;2.07;;
9972;SDS011;5027;53.560;10.062;2023-03-04T00:53:36;4.23;;;2.10;;
9972;SDS011;5027;53.560;10.062;2023-03-04T00:56:03;10.83;;;2.97;;
9972;SDS011;5027;53.560;10.062;2023-03-04T00:58:30;4.63;;;2.03;;
9972;SDS011;5027;53.560;10.062;2023-03-04T01:00:57;4.50;;;2.27;;
9972;SDS011;5027;53.560;10.062;2023-03-04T01:03:24;4.77;;;2.17;;
9972;SDS011;5027;53.560;10.062;2023-03-04T01:05:51;8.23;;;3.00;;
9972;SDS011;5027;53.560;10.062;2023-03-04T01:08:18;9.03;;;2.83;;
9972;SDS011;5027;53.560;10.062;2023-03-04T01:10:45;7.57;;;2.80;;
9972;SDS011;5027;53.560;10.062;2023-03-04T01:13:13;4.80;;;2.47;;
9972;SDS011;5027;53.560;10.062;2023-03-04T01:15:41;8.63;;;2.70;;
9972;SDS011;5027;53.560;10.062;2023-03-04T01:18:07;8.93;;;2.83;;
9972;SDS011;5027;53.560;10.062;2023-03-04T01:20:34;4.07;;;2.10;;
9972;SDS011;5027;53.560;10.062;2023-03-04T01:23:01;4.60;;;2.10;;
9972;SDS011;5027;53.560;10.062;2023-03-04T01:25:27;6.53;;;2.30;;
9972;SDS011;5027;53.560;10.062;2023-03-04T01:27:54;4.57;;;2.30;;
9972;SDS011;5027;53.560;10.062;2023-03-04T01:30:21;4.37;;;2.23;;
9972;SDS011;5027;53.560;10.062;2023-03-04T01:32:47;3.03;;;2.17;;
9972;SDS011;5027;53.560;10.062;2023-03-04T01:35:15;10.97;;;2.80;;
9972;SDS011;5027;53.560;10.062;2023-03-04T01:37:41;4.43;;;2.00;;
9972;SDS011;5027;53.560;10.062;2023-03-04T01:40:08;3.23;;;1.80;;
9972;SDS011;5027;53.560;10.062;2023-03-04T01:42:36;4.47;;;2.57;;
9972;SDS011;5027;53.560;10.062;2023-03-04T01:45:04;3.13;;;2.03;;
9972;SDS011;5027;53.560;10.062;2023-03-04T01:47:32;4.10;;;2.00;;
9972;SDS011;5027;53.560;10.062;2023-03-04T01:50:04;7.50;;;2.60;;
9972;SDS011;5027;53.560;10.062;2023-03-04T01:52:36;3.47;;;2.20;;
9972;SDS011;5027;53.560;10.062;2023-03-04T01:55:10;5.13;;;2.30;;
9972;SDS011;5027;53.560;10.062;2023-03-04T01:57:41;8.33;;;2.93;;
9972;SDS011;5027;53.560;10.062;2023-03-04T02:02:50;8.27;;;2.10;;
9972;SDS011;5027;53.560;10.062;2023-03-04T02:05:19;3.20;;;1.83;;
9972;SDS011;5027;53.560;10.062;2023-03-04T02:07:47;4.13;;;2.00;;
9972;SDS011;5027;53.560;10.062;2023-03-04T02:10:15;8.33;;;2.43;;
9972;SDS011;5027;53.560;10.062;2023-03-04T02:12:42;3.57;;;1.70;;
9972;SDS011;5027;53.560;10.062;2023-03-04T02:15:09;8.77;;;2.70;;
9972;SDS011;5027;53.560;10.062;2023-03-04T02:17:36;3.70;;;1.83;;
9972;SDS011;5027;53.560;10.062;2023-03-04T02:22:53;2.93;;;1.60;;
9972;SDS011;5027;53.560;10.062;2023-03-04T02:25:27;6.87;;;2.60;;
9972;SDS011;5027;53.560;10.062;2023-03-04T02:28:01;8.57;;;2.83;;
9972;SDS011;5027;53.560;10.062;2023-03-04T02:30:28;6.30;;;2.47;;
9972;SDS011;5027;53.560;10.062;2023-03-04T02:32:55;2.77;;;1.67;;
9972;SDS011;5027;53.560;10.062;2023-03-04T02:35:22;9.03;;;2.30;;
9972;SDS011;5027;53.560;10.062;2023-03-04T02:37:48;6.10;;;2.20;;
9972;SDS011;5027;53.560;10.062;2023-03-04T02:40:37;8.60;;;2.43;;
9972;SDS011;5027;53.560;10.062;2023-03-04T02:43:04;3.30;;;1.77;;
9972;SDS011;5027;53.560;10.062;2023-03-04T02:45:41;4.27;;;2.03;;
9972;SDS011;5027;53.560;10.062;2023-03-04T02:48:10;9.30;;;2.83;;
9972;SDS011;5027;53.560;10.062;2023-03-04T02:50:42;3.10;;;1.60;;
9972;SDS011;5027;53.560;10.062;2023-03-04T02:53:11;2.47;;;1.67;;
9972;SDS011;5027;53.560;10.062;2023-03-04T02:55:38;3.77;;;1.53;;
9972;SDS011;5027;53.560;10.062;2023-03-04T02:58:05;2.93;;;1.63;;
9972;SDS011;5027;53.560;10.062;2023-03-04T03:00:32;5.53;;;2.23;;
9972;SDS011;5027;53.560;10.062;2023-03-04T03:02:58;4.70;;;1.70;;
9972;SDS011;5027;53.560;10.062;2023-03-04T03:05:26;3.40;;;1.60;;
9972;SDS011;5027;53.560;10.062;2023-03-04T03:07:56;4.50;;;2.10;;
9972;SDS011;5027;53.560;10.062;2023-03-04T03:10:23;5.23;;;1.93;;
9972;SDS011;5027;53.560;10.062;2023-03-04T03:12:50;2.80;;;1.60;;
9972;SDS011;5027;53.560;10.062;2023-03-04T03:15:18;6.83;;;3.03;;
9972;SDS011;5027;53.560;10.062;2023-03-04T03:17:45;2.93;;;1.50;;
9972;SDS011;5027;53.560;10.062;2023-03-04T03:20:13;6.07;;;2.00;;
9972;SDS011;5027;53.560;10.062;2023-03-04T03:22:40;3.17;;;1.57;;
9972;SDS011;5027;53.560;10.062;2023-03-04T03:25:08;4.03;;;1.90;;
9972;SDS011;5027;53.560;10.062;2023-03-04T03:27:36;7.93;;;2.63;;
9972;SDS011;5027;53.560;10.062;2023-03-04T03:30:04;5.87;;;1.93;;
9972;SDS011;5027;53.560;10.062;2023-03-04T03:32:34;8.30;;;2.70;;
9972;SDS011;5027;53.560;10.062;2023-03-04T03:35:01;4.93;;;2.07;;
9972;SDS011;5027;53.560;10.062;2023-03-04T03:37:29;3.17;;;1.57;;
9972;SDS011;5027;53.560;10.062;2023-03-04T03:39:55;6.20;;;2.00;;
9972;SDS011;5027;53.560;10.062;2023-03-04T03:42:22;2.67;;;1.60;;
9972;SDS011;5027;53.560;10.062;2023-03-04T03:44:48;3.67;;;1.60;;
9972;SDS011;5027;53.560;10.062;2023-03-04T03:47:15;9.90;;;2.63;;
9972;SDS011;5027;53.560;10.062;2023-03-04T03:49:42;10.30;;;3.23;;
9972;SDS011;5027;53.560;10.062;2023-03-04T03:52:09;2.87;;;1.80;;
9972;SDS011;5027;53.560;10.062;2023-03-04T03:54:36;2.93;;;1.60;;
9972;SDS011;5027;53.560;10.062;2023-03-04T03:57:03;2.67;;;1.70;;
9972;SDS011;5027;53.560;10.062;2023-03-04T03:59:29;6.83;;;2.60;;
9972;SDS011;5027;53.560;10.062;2023-03-04T04:01:56;7.07;;;2.20;;
9972;SDS011;5027;53.560;10.062;2023-03-04T04:04:23;6.83;;;2.77;;
9972;SDS011;5027;53.560;10.062;2023-03-04T04:06:49;2.97;;;1.40;;
9972;SDS011;5027;53.560;10.062;2023-03-04T04:09:16;2.63;;;1.70;;
9972;SDS011;5027;53.560;10.062;2023-03-04T04:11:43;5.10;;;2.13;;
9972;SDS011;5027;53.560;10.062;2023-03-04T04:14:12;5.33;;;2.10;;
9972;SDS011;5027;53.560;10.062;2023-03-04T04:16:39;3.50;;;1.70;;
9972;SDS011;5027;53.560;10.062;2023-03-04T04:19:06;7.57;;;2.73;;
9972;SDS011;5027;53.560;10.062;2023-03-04T04:21:35;9.77;;;3.03;;
9972;SDS011;5027;53.560;10.062;2023-03-04T04:24:01;4.70;;;1.80;;
9972;SDS011;5027;53.560;10.062;2023-03-04T04:26:28;11.63;;;3.50;;
9972;SDS011;5027;53.560;10.062;2023-03-04T04:28:55;4.10;;;1.83;;
9972;SDS011;5027;53.560;10.062;2023-03-04T04:31:21;8.53;;;2.67;;
9972;SDS011;5027;53.560;10.062;2023-03-04T04:33:48;3.27;;;1.70;;
9972;SDS011;5027;53.560;10.062;2023-03-04T04:36:14;3.50;;;1.63;;
9972;SDS011;5027;53.560;10.062;2023-03-04T04:38:41;6.63;;;2.73;;
9972;SDS011;5027;53.560;10.062;2023-03-04T04:41:22;3.10;;;1.90;;
9972;SDS011;5027;53.560;10.062;2023-03-04T04:43:51;4.03;;;2.00;;
9972;SDS011;5027;53.560;10.062;2023-03-04T04:46:17;2.90;;;1.57;;
9972;SDS011;5027;53.560;10.062;2023-03-04T04:48:44;3.63;;;1.77;;
9972;SDS011;5027;53.560;10.062;2023-03-04T04:51:11;3.97;;;1.90;;
9972;SDS011;5027;53.560;10.062;2023-03-04T04:53:38;2.23;;;1.20;;
9972;SDS011;5027;53.560;10.062;2023-03-04T04:56:13;2.83;;;1.47;;
9972;SDS011;5027;53.560;10.062;2023-03-04T04:58:43;6.73;;;2.30;;
9972;SDS011;5027;53.560;10.062;2023-03-04T05:01:10;3.27;;;1.80;;
9972;SDS011;5027;53.560;10.062;2023-03-04T05:03:37;8.20;;;2.93;;
9972;SDS011;5027;53.560;10.062;2023-03-04T05:06:05;2.13;;;1.53;;
9972;SDS011;5027;53.560;10.062;2023-03-04T05:08:33;2.87;;;1.53;;
9972;SDS011;5027;53.560;10.062;2023-03-04T05:11:01;8.63;;;2.87;;
9972;SDS011;5027;53.560;10.062;2023-03-04T05:13:28;9.27;;;3.13;;
9972;SDS011;5027;53.560;10.062;2023-03-04T05:15:55;10.20;;;3.23;;
9972;SDS011;5027;53.560;10.062;2023-03-04T05:18:22;9.80;;;2.80;;
9972;SDS011;5027;53.560;10.062;2023-03-04T05:20:51;2.67;;;1.67;;
9972;SDS011;5027;53.560;10.062;2023-03-04T05:23:18;7.10;;;2.67;;
9972;SDS011;5027;53.560;10.062;2023-03-04T05:25:45;2.87;;;1.57;;
9972;SDS011;5027;53.560;10.062;2023-03-04T05:28:12;6.77;;;2.43;;
9972;SDS011;5027;53.560;10.062;2023-03-04T05:30:40;10.03;;;3.17;;
9972;SDS011;5027;53.560;10.062;2023-03-04T05:33:08;9.00;;;2.67;;
9972;SDS011;5027;53.560;10.062;2023-03-04T05:35:37;9.47;;;3.17;;
9972;SDS011;5027;53.560;10.062;2023-03-04T05:38:06;3.33;;;1.90;;
9972;SDS011;5027;53.560;10.062;2023-03-04T05:40:34;5.33;;;2.73;;
9972;SDS011;5027;53.560;10.062;2023-03-04T05:43:02;3.97;;;2.00;;
9972;SDS011;5027;53.560;10.062;2023-03-04T05:45:28;5.43;;;2.10;;
9972;SDS011;5027;53.560;10.062;2023-03-04T05:47:55;3.40;;;1.80;;
9972;SDS011;5027;53.560;10.062;2023-03-04T05:50:22;3.33;;;1.80;;
9972;SDS011;5027;53.560;10.062;2023-03-04T05:52:51;3.07;;;1.60;;
9972;SDS011;5027;53.560;10.062;2023-03-04T05:55:18;2.57;;;1.53;;
9972;SDS011;5027;53.560;10.062;2023-03-04T05:57:45;4.10;;;2.07;;
9972;SDS011;5027;53.560;10.062;2023-03-04T06:00:13;2.13;;;1.63;;
9972;SDS011;5027;53.560;10.062;2023-03-04T06:02:41;2.93;;;1.87;;
9972;SDS011;5027;53.560;10.062;2023-03-04T06:05:10;2.57;;;1.70;;
9972;SDS011;5027;53.560;10.062;2023-03-04T06:07:38;6.57;;;2.07;;
9972;SDS011;5027;53.560;10.062;2023-03-04T06:10:05;2.93;;;1.30;;
9972;SDS011;5027;53.560;10.062;2023-03-04T06:12:33;2.67;;;1.50;;
9972;SDS011;5027;53.560;10.062;2023-03-04T06:14:59;2.57;;;1.47;;
9972;SDS011;5027;53.560;10.062;2023-03-04T06:17:28;2.57;;;1.43;;
9972;SDS011;5027;53.560;10.062;2023-03-04T06:19:55;3.57;;;1.90;;
9972;SDS011;5027;53.560;10.062;2023-03-04T06:22:22;2.63;;;1.70;;
9972;SDS011;5027;53.560;10.062;2023-03-04T06:24:48;3.17;;;1.70;;
9972;SDS011;5027;53.560;10.062;2023-03-04T06:27:15;2.13;;;1.60;;
9972;SDS011;5027;53.560;10.062;2023-03-04T06:29:42;2.17;;;1.70;;
9972;SDS011;5027;53.560;10.062;2023-03-04T06:32:08;4.10;;;2.03;;
9972;SDS011;5027;53.560;10.062;2023-03-04T06:34:35;2.70;;;1.50;;
9972;SDS011;5027;53.560;10.062;2023-03-04T06:37:02;4.20;;;2.13;;
9972;SDS011;5027;53.560;10.062;2023-03-04T06:39:29;3.10;;;1.73;;
9972;SDS011;5027;53.560;10.062;2023-03-04T06:41:55;4.57;;;2.27;;
9972;SDS011;5027;53.560;10.062;2023-03-04T06:44:22;3.57;;;1.70;;
9972;SDS011;5027;53.560;10.062;2023-03-04T06:46:49;3.60;;;1.60;;
9972;SDS011;5027;53.560;10.062;2023-03-04T06:49:15;7.37;;;2.73;;
9972;SDS011;5027;53.560;10.062;2023-03-04T06:51:42;3.67;;;1.97;;
9972;SDS011;5027;53.560;10.062;2023-03-04T06:54:09;2.90;;;2.00;;
9972;SDS011;5027;53.560;10.062;2023-03-04T06:56:35;2.97;;;1.60;;
9972;SDS011;5027;53.560;10.062;2023-03-04T06:59:02;5.87;;;2.40;;
9972;SDS011;5027;53.560;10.062;2023-03-04T07:01:29;17.20;;;4.77;;
9972;SDS011;5027;53.560;10.062;2023-03-04T07:03:55;4.67;;;1.97;;
9972;SDS011;5027;53.560;10.062;2023-03-04T07:06:24;5.90;;;2.60;;
9972;SDS011;5027;53.560;10.062;2023-03-04T07:08:53;3.57;;;2.03;;
9972;SDS011;5027;53.560;10.062;2023-03-04T07:11:20;4.37;;;1.93;;
9972;SDS011;5027;53.560;10.062;2023-03-04T07:13:47;9.77;;;3.50;;
9972;SDS011;5027;53.560;10.062;2023-03-04T07:16:19;12.77;;;3.20;;
9972;SDS011;5027;53.560;10.062;2023-03-04T07:18:47;5.47;;;2.30;;
9972;SDS011;5027;53.560;10.062;2023-03-04T07:21:14;10.23;;;3.43;;
9972;SDS011;5027;53.560;10.062;2023-03-04T07:23:42;5.13;;;2.20;;
9972;SDS011;5027;53.560;10.062;2023-03-04T07:26:09;4.80;;;2.50;;
9972;SDS011;5027;53.560;10.062;2023-03-04T07:28:36;4.87;;;2.70;;
9972;SDS011;5027;53.560;10.062;2023-03-04T07:31:07;3.17;;;2.23;;
9972;SDS011;5027;53.560;10.062;2023-03-04T07:33:34;3.60;;;2.00;;
9972;SDS011;5027;53.560;10.062;2023-03-04T07:36:00;4.23;;;2.10;;
9972;SDS011;5027;53.560;10.062;2023-03-04T07:38:27;4.63;;;2.20;;
9972;SDS011;5027;53.560;10.062;2023-03-04T07:40:55;4.20;;;2.10;;
9972;SDS011;5027;53.560;10.062;2023-03-04T07:43:22;4.50;;;2.40;;
9972;SDS011;5027;53.560;10.062;2023-03-04T07:45:49;5.23;;;2.50;;
9972;SDS011;5027;53.560;10.062;2023-03-04T07:48:16;4.90;;;2.50;;
9972;SDS011;5027;53.560;10.062;2023-03-04T07:50:43;3.40;;;2.20;;
9972;SDS011;5027;53.560;10.062;2023-03-04T07:53:09;4.13;;;2.37;;
9972;SDS011;5027;53.560;10.062;2023-03-04T07:55:36;5.40;;;2.30;;
9972;SDS011;5027;53.560;10.062;2023-03-04T07:58:02;4.23;;;2.10;;
9972;SDS011;5027;53.560;10.062;2023-03-04T08:00:29;6.80;;;2.57;;
9972;SDS011;5027;53.560;10.062;2023-03-04T08:02:56;5.77;;;2.90;;
9972;SDS011;5027;53.560;10.062;2023-03-04T08:05:22;13.70;;;4.13;;
9972;SDS011;5027;53.560;10.062;2023-03-04T08:07:49;3.73;;;2.10;;
9972;SDS011;5027;53.560;10.062;2023-03-04T08:10:16;3.63;;;2.10;;
9972;SDS011;5027;53.560;10.062;2023-03-04T08:12:42;10.27;;;3.23;;
9972;SDS011;5027;53.560;10.062;2023-03-04T08:15:09;3.83;;;2.40;;
9972;SDS011;5027;53.560;10.062;2023-03-04T08:17:36;5.23;;;2.57;;
9972;SDS011;5027;53.560;10.062;2023-03-04T08:20:03;4.13;;;2.33;;
9972;SDS011;5027;53.560;10.062;2023-03-04T08:22:30;6.83;;;3.33;;
9972;SDS011;5027;53.560;10.062;2023-03-04T08:24:56;4.97;;;2.50;;
9972;SDS011;5027;53.560;10.062;2023-03-04T08:27:23;3.50;;;1.93;;
9972;SDS011;5027;53.560;10.062;2023-03-04T08:29:50;12.40;;;4.30;;
9972;SDS011;5027;53.560;10.062;2023-03-04T08:32:16;4.50;;;2.47;;
9972;SDS011;5027;53.560;10.062;2023-03-04T08:34:43;4.13;;;2.30;;
9972;SDS011;5027;53.560;10.062;2023-03-04T08:37:10;2.97;;;1.80;;
9972;SDS011;5027;53.560;10.062;2023-03-04T08:39:36;4.00;;;2.10;;
9972;SDS011;5027;53.560;10.062;2023-03-04T08:42:03;11.10;;;3.87;;
9972;SDS011;5027;53.560;10.062;2023-03-04T08:44:30;4.37;;;2.27;;
9972;SDS011;5027;53.560;10.062;2023-03-04T08:46:56;4.43;;;2.53;;
9972;SDS011;5027;53.560;10.062;2023-03-04T08:49:23;3.60;;;1.93;;
9972;SDS011;5027;53.560;10.062;2023-03-04T08:51:50;4.97;;;2.40;;
9972;SDS011;5027;53.560;10.062;2023-03-04T08:54:16;4.10;;;2.70;;
9972;SDS011;5027;53.560;10.062;2023-03-04T08:56:43;4.43;;;2.37;;
9972;SDS011;5027;53.560;10.062;2023-03-04T08:59:10;4.50;;;2.20;;
9972;SDS011;5027;53.560;10.062;2023-03-04T09:01:36;6.60;;;2.97;;
9972;SDS011;5027;53.560;10.062;2023-03-04T09:04:03;4.67;;;2.30;;
9972;SDS011;5027;53.560;10.062;2023-03-04T09:06:30;3.33;;;2.17;;
9972;SDS011;5027;53.560;10.062;2023-03-04T09:08:56;5.43;;;2.87;;
9972;SDS011;5027;53.560;10.062;2023-03-04T09:11:24;4.03;;;2.43;;
9972;SDS011;5027;53.560;10.062;2023-03-04T09:13:51;4.43;;;2.53;;
9972;SDS011;5027;53.560;10.062;2023-03-04T09:16:18;5.43;;;2.83;;
9972;SDS011;5027;53.560;10.062;2023-03-04T09:18:45;5.97;;;2.63;;
9972;SDS011;5027;53.560;10.062;2023-03-04T09:21:12;7.17;;;2.73;;
9972;SDS011;5027;53.560;10.062;2023-03-04T09:23:38;5.03;;;2.67;;
9972;SDS011;5027;53.560;10.062;2023-03-04T09:26:12;13.70;;;4.93;;
9972;SDS011;5027;53.560;10.062;2023-03-04T09:28:48;4.13;;;2.40;;
9972;SDS011;5027;53.560;10.062;2023-03-04T09:31:16;4.00;;;2.30;;
9972;SDS011;5027;53.560;10.062;2023-03-04T09:33:43;6.93;;;2.63;;
9972;SDS011;5027;53.560;10.062;2023-03-04T09:36:11;4.97;;;2.77;;
9972;SDS011;5027;53.560;10.062;2023-03-04T09:38:38;6.43;;;2.90;;
9972;SDS011;5027;53.560;10.062;2023-03-04T09:41:07;9.70;;;3.60;;
9972;SDS011;5027;53.560;10.062;2023-03-04T09:43:36;6.90;;;2.67;;
9972;SDS011;5027;53.560;10.062;2023-03-04T09:46:12;6.87;;;2.80;;
9972;SDS011;5027;53.560;10.062;2023-03-04T09:48:48;5.73;;;2.77;;
9972;SDS011;5027;53.560;10.062;2023-03-04T09:54:06;14.00;;;3.87;;
9972;SDS011;5027;53.560;10.062;2023-03-04T09:56:39;5.60;;;3.13;;
9972;SDS011;5027;53.560;10.062;2023-03-04T09:59:23;19.97;;;6.23;;
9972;SDS011;5027;53.560;10.062;2023-03-04T10:01:55;9.87;;;4.43;;
9972;SDS011;5027;53.560;10.062;2023-03-04T10:04:32;10.00;;;3.13;;
9972;SDS011;5027;53.560;10.062;2023-03-04T10:07:16;9.63;;;3.50;;
9972;SDS011;5027;53.560;10.062;2023-03-04T10:09:48;17.33;;;5.83;;
9972;SDS011;5027;53.560;10.062;2023-03-04T10:12:21;15.00;;;5.30;;
9972;SDS011;5027;53.560;10.062;2023-03-04T10:14:59;13.93;;;4.47;;
9972;SDS011;5027;53.560;10.062;2023-03-04T10:17:36;18.83;;;5.63;;
9972;SDS011;5027;53.560;10.062;2023-03-04T10:20:15;11.67;;;4.80;;
9972;SDS011;5027;53.560;10.062;2023-03-04T10:25:22;16.13;;;5.93;;
9972;SDS011;5027;53.560;10.062;2023-03-04T10:30:50;18.97;;;5.57;;
9972;SDS011;5027;53.560;10.062;2023-03-04T10:33:24;18.00;;;4.87;;
9972;SDS011;5027;53.560;10.062;2023-03-04T10:36:02;11.70;;;4.50;;
9972;SDS011;5027;53.560;10.062;2023-03-04T10:38:59;17.80;;;5.20;;
9972;SDS011;5027;53.560;10.062;2023-03-04T10:41:30;23.60;;;6.00;;
9972;SDS011;5027;53.560;10.062;2023-03-04T10:44:02;14.90;;;5.40;;
9972;SDS011;5027;53.560;10.062;2023-03-04T10:46:29;10.53;;;3.60;;
9972;SDS011;5027;53.560;10.062;2023-03-04T10:48:57;10.03;;;3.80;;
9972;SDS011;5027;53.560;10.062;2023-03-04T10:51:25;14.77;;;5.00;;
9972;SDS011;5027;53.560;10.062;2023-03-04T10:53:57;14.33;;;4.90;;
9972;SDS011;5027;53.560;10.062;2023-03-04T11:02:18;22.93;;;6.10;;
9972;SDS011;5027;53.560;10.062;2023-03-04T11:04:52;17.93;;;5.23;;
9972;SDS011;5027;53.560;10.062;2023-03-04T11:07:22;11.30;;;4.37;;
9972;SDS011;5027;53.560;10.062;2023-03-04T11:09:50;9.70;;;2.93;;
9972;SDS011;5027;53.560;10.062;2023-03-04T11:12:19;11.80;;;4.20;;
9972;SDS011;5027;53.560;10.062;2023-03-04T11:14:56;19.37;;;4.73;;
9972;SDS011;5027;53.560;10.062;2023-03-04T11:17:24;12.57;;;4.57;;
9972;SDS011;5027;53.560;10.062;2023-03-04T11:22:44;12.23;;;4.80;;
9972;SDS011;5027;53.560;10.062;2023-03-04T11:25:28;15.87;;;4.03;;
9972;SDS011;5027;53.560;10.062;2023-03-04T11:30:54;15.07;;;4.80;;
9972;SDS011;5027;53.560;10.062;2023-03-04T11:33:34;18.47;;;5.37;;
9972;SDS011;5027;53.560;10.062;2023-03-04T11:39:12;17.07;;;4.47;;
9972;SDS011;5027;53.560;10.062;2023-03-04T11:41:51;17.70;;;5.33;;
9972;SDS011;5027;53.560;10.062;2023-03-04T11:44:44;10.13;;;4.20;;
9972;SDS011;5027;53.560;10.062;2023-03-04T11:50:22;15.53;;;5.33;;
9972;SDS011;5027;53.560;10.062;2023-03-04T11:53:24;16.37;;;5.50;;
9972;SDS011;5027;53.560;10.062;2023-03-04T11:56:14;14.53;;;4.73;;
9972;SDS011;5027;53.560;10.062;2023-03-04T12:01:49;20.57;;;5.37;;
9972;SDS011;5027;53.560;10.062;2023-03-04T12:07:15;15.63;;;4.97;;
9972;SDS011;5027;53.560;10.062;2023-03-04T12:10:19;17.20;;;5.33;;
9972;SDS011;5027;53.560;10.062;2023-03-04T12:19:20;16.03;;;4.93;;
9972;SDS011;5027;53.560;10.062;2023-03-04T12:27:42;15.47;;;5.30;;
9972;SDS011;5027;53.560;10.062;2023-03-04T12:30:31;21.43;;;5.70;;
9972;SDS011;5027;53.560;10.062;2023-03-04T12:38:58;14.40;;;4.80;;
9972;SDS011;5027;53.560;10.062;2023-03-04T12:41:48;16.37;;;5.17;;
9972;SDS011;5027;53.560;10.062;2023-03-04T12:44:42;14.50;;;5.27;;
9972;SDS011;5027;53.560;10.062;2023-03-04T12:53:00;10.87;;;3.77;;
9972;SDS011;5027;53.560;10.062;2023-03-04T12:55:55;15.33;;;4.27;;
9972;SDS011;5027;53.560;10.062;2023-03-04T12:58:24;18.23;;;5.00;;
9972;SDS011;5027;53.560;10.062;2023-03-04T13:01:00;16.63;;;4.80;;
9972;SDS011;5027;53.560;10.062;2023-03-04T13:03:53;19.13;;;5.20;;
9972;SDS011;5027;53.560;10.062;2023-03-04T13:06:25;12.67;;;4.13;;
9972;SDS011;5027;53.560;10.062;2023-03-04T13:09:15;15.33;;;4.60;;
9972;SDS011;5027;53.560;10.062;2023-03-04T13:11:53;6.23;;;3.40;;
9972;SDS011;5027;53.560;10.062;2023-03-04T13:14:27;16.07;;;5.10;;
9972;SDS011;5027;53.560;10.062;2023-03-04T13:16:56;15.00;;;4.70;;
9972;SDS011;5027;53.560;10.062;2023-03-04T13:19:45;15.27;;;4.93;;
9972;SDS011;5027;53.560;10.062;2023-03-04T13:54:06;15.63;;;4.43;;
9972;SDS011;5027;53.560;10.062;2023-03-04T13:56:43;22.83;;;5.17;;
9972;SDS011;5027;53.560;10.062;2023-03-04T13:59:20;15.07;;;4.60;;
9972;SDS011;5027;53.560;10.062;2023-03-04T14:01:55;13.63;;;4.33;;
9972;SDS011;5027;53.560;10.062;2023-03-04T14:04:29;6.47;;;3.13;;
9972;SDS011;5027;53.560;10.062;2023-03-04T14:07:02;14.47;;;4.27;;
9972;SDS011;5027;53.560;10.062;2023-03-04T14:09:51;14.70;;;4.77;;
9972;SDS011;5027;53.560;10.062;2023-03-04T14:12:42;6.67;;;3.23;;
9972;SDS011;5027;53.560;10.062;2023-03-04T14:17:38;12.60;;;4.70;;
9972;SDS011;5027;53.560;10.062;2023-03-04T14:20:20;8.23;;;3.37;;
9972;SDS011;5027;53.560;10.062;2023-03-04T14:22:49;6.60;;;3.23;;
9972;SDS011;5027;53.560;10.062;2023-03-04T14:27:48;10.70;;;3.00;;
9972;SDS011;5027;53.560;10.062;2023-03-04T14:30:27;13.50;;;4.27;;
9972;SDS011;5027;53.560;10.062;2023-03-04T14:33:11;9.07;;;3.60;;
9972;SDS011;5027;53.560;10.062;2023-03-04T14:35:44;12.77;;;3.83;;
9972;SDS011;5027;53.560;10.062;2023-03-04T14:38:29;12.00;;;4.30;;
9972;SDS011;5027;53.560;10.062;2023-03-04T14:46:44;12.80;;;3.97;;
9972;SDS011;5027;53.560;10.062;2023-03-04T14:49:33;10.63;;;3.67;;
9972;SDS011;5027;53.560;10.062;2023-03-04T14:52:01;12.17;;;4.10;;
9972;SDS011;5027;53.560;10.062;2023-03-04T14:54:33;8.00;;;3.17;;
9972;SDS011;5027;53.560;10.062;2023-03-04T14:57:19;13.90;;;4.63;;
9972;SDS011;5027;53.560;10.062;2023-03-04T14:59:52;18.40;;;7.77;;
9972;SDS011;5027;53.560;10.062;2023-03-04T15:04:57;9.77;;;3.60;;
9972;SDS011;5027;53.560;10.062;2023-03-04T15:07:35;10.70;;;3.63;;
9972;SDS011;5027;53.560;10.062;2023-03-04T15:10:04;10.03;;;4.23;;
9972;SDS011;5027;53.560;10.062;2023-03-04T15:12:34;10.63;;;4.10;;
9972;SDS011;5027;53.560;10.062;2023-03-04T15:18:21;8.33;;;3.60;;
9972;SDS011;5027;53.560;10.062;2023-03-04T15:20:52;11.97;;;3.87;;
9972;SDS011;5027;53.560;10.062;2023-03-04T15:23:20;10.77;;;2.87;;
9972;SDS011;5027;53.560;10.062;2023-03-04T15:25:49;14.10;;;4.50;;
9972;SDS011;5027;53.560;10.062;2023-03-04T15:28:23;14.13;;;4.13;;
9972;SDS011;5027;53.560;10.062;2023-03-04T15:30:51;10.53;;;3.80;;
9972;SDS011;5027;53.560;10.062;2023-03-04T15:33:18;9.90;;;3.57;;
9972;SDS011;5027;53.560;10.062;2023-03-04T15:36:20;9.77;;;3.87;;
9972;SDS011;5027;53.560;10.062;2023-03-04T15:38:45;13.27;;;3.77;;
9972;SDS011;5027;53.560;10.062;2023-03-04T15:41:15;8.43;;;3.40;;
9972;SDS011;5027;53.560;10.062;2023-03-04T15:43:46;13.27;;;3.77;;
9972;SDS011;5027;53.560;10.062;2023-03-04T15:46:13;16.67;;;4.50;;
9972;SDS011;5027;53.560;10.062;2023-03-04T15:48:43;11.30;;;3.20;;
9972;SDS011;5027;53.560;10.062;2023-03-04T15:51:12;14.17;;;4.00;;
9972;SDS011;5027;53.560;10.062;2023-03-04T15:53:45;12.07;;;3.40;;
9972;SDS011;5027;53.560;10.062;2023-03-04T15:56:18;16.17;;;9.00;;
9972;SDS011;5027;53.560;10.062;2023-03-04T15:58:49;18.80;;;9.17;;
9972;SDS011;5027;53.560;10.062;2023-03-04T16:01:22;12.70;;;2.90;;
9972;SDS011;5027;53.560;10.062;2023-03-04T16:03:50;13.43;;;3.83;;
9972;SDS011;5027;53.560;10.062;2023-03-04T16:06:19;8.67;;;3.13;;
9972;SDS011;5027;53.560;10.062;2023-03-04T16:08:49;12.10;;;3.73;;
9972;SDS011;5027;53.560;10.062;2023-03-04T16:11:27;16.33;;;4.50;;
9972;SDS011;5027;53.560;10.062;2023-03-04T16:13:57;11.07;;;3.20;;
9972;SDS011;5027;53.560;10.062;2023-03-04T16:16:23;13.33;;;4.13;;
9972;SDS011;5027;53.560;10.062;2023-03-04T16:18:50;13.47;;;4.17;;
9972;SDS011;5027;53.560;10.062;2023-03-04T16:21:18;10.53;;;3.57;;
9972;SDS011;5027;53.560;10.062;2023-03-04T16:23:48;11.73;;;3.97;;
9972;SDS011;5027;53.560;10.062;2023-03-04T16:26:17;11.30;;;3.63;;
9972;SDS011;5027;53.560;10.062;2023-03-04T16:28:45;14.37;;;3.93;;
9972;SDS011;5027;53.560;10.062;2023-03-04T16:31:12;11.60;;;3.70;;
9972;SDS011;5027;53.560;10.062;2023-03-04T16:33:40;13.97;;;4.10;;
9972;SDS011;5027;53.560;10.062;2023-03-04T16:38:49;8.73;;;3.70;;
9972;SDS011;5027;53.560;10.062;2023-03-04T16:41:18;10.33;;;3.93;;
9972;SDS011;5027;53.560;10.062;2023-03-04T16:43:49;10.97;;;3.63;;
9972;SDS011;5027;53.560;10.062;2023-03-04T16:46:16;8.67;;;3.20;;
9972;SDS011;5027;53.560;10.062;2023-03-04T16:48:43;12.47;;;4.13;;
9972;SDS011;5027;53.560;10.062;2023-03-04T16:51:12;8.27;;;2.90;;
9972;SDS011;5027;53.560;10.062;2023-03-04T16:53:42;6.87;;;3.13;;
9972;SDS011;5027;53.560;10.062;2023-03-04T16:56:14;14.50;;;4.10;;
9972;SDS011;5027;53.560;10.062;2023-03-04T16:58:42;9.00;;;3.20;;
9972;SDS011;5027;53.560;10.062;2023-03-04T17:01:23;7.47;;;3.07;;
9972;SDS011;5027;53.560;10.062;2023-03-04T17:03:51;9.10;;;3.57;;
9972;SDS011;5027;53.560;10.062;2023-03-04T17:06:20;7.73;;;2.97;;
9972;SDS011;5027;53.560;10.062;2023-03-04T17:08:47;6.50;;;2.60;;